Time;durP1;ratioP1;P1;durP2;ratioP2;P2;SDS_P1;SDS_P2;PMS_P1;PMS_P2;Temp;Humidity;BMP_temperature;BMP_pressure;BME280_temperature;BME280_humidity;BME280_pressure;Samples;Min_cycle;Max_cycle;Signal;HPM_P1;HPM_P2
2022/01/12 00:02:08;;;;;;;5.25;4.50;;;21.30;40.00;;;;;;5039287;28;20211;-59
2022/01/12 00:04:34;;;;;;;6.75;5.05;;;21.30;40.00;;;;;;5034734;28;45341;-60
2022/01/12 00:06:59;;;;;;;5.30;4.80;;;21.30;40.00;;;;;;5038176;28;20091;-60
2022/01/12 00:09:25;;;;;;;7.55;5.15;;;21.30;40.00;;;;;;5036919;28;20045;-60
2022/01/12 00:11:50;;;;;;;6.43;5.28;;;21.20;40.00;;;;;;5039919;28;20045;-60
2022/01/12 00:14:16;;;;;;;6.65;5.03;;;21.20;40.00;;;;;;5037067;28;20044;-59
2022/01/12 00:16:47;;;;;;;5.93;5.32;;;21.20;40.00;;;;;;5036465;28;27445;-59
2022/01/12 00:19:12;;;;;;;7.03;5.05;;;21.20;40.00;;;;;;5035587;28;20554;-61
2022/01/12 00:21:38;;;;;;;6.50;4.93;;;21.20;40.00;;;;;;5041616;28;20129;-59
2022/01/12 00:24:05;;;;;;;7.22;4.60;;;21.20;40.00;;;;;;5036104;28;20041;-61
2022/01/12 00:34:28;;;;;;;9.82;5.30;;;21.10;40.00;;;;;;5027607;28;20056;-60
2022/01/12 00:36:53;;;;;;;6.25;5.20;;;21.00;40.00;;;;;;5037378;28;20113;-60
2022/01/12 00:39:19;;;;;;;6.18;4.78;;;21.00;40.00;;;;;;5038022;28;20171;-60
2022/01/12 00:41:45;;;;;;;6.32;4.97;;;21.00;40.00;;;;;;5037687;28;20127;-60
2022/01/12 00:44:21;;;;;;;7.65;5.03;;;21.00;40.00;;;;;;5035235;28;20032;-60
2022/01/12 00:46:46;;;;;;;6.57;5.40;;;21.00;40.00;;;;;;5032088;28;27961;-59
2022/01/12 00:49:12;;;;;;;5.30;4.80;;;21.00;40.00;;;;;;5035667;28;20502;-59
2022/01/12 00:51:39;;;;;;;6.00;5.15;;;20.90;40.00;;;;;;5038948;28;20056;-59
2022/01/12 00:54:06;;;;;;;5.50;4.80;;;20.90;40.00;;;;;;5036865;28;20068;-60
2022/01/12 00:56:32;;;;;;;6.45;5.03;;;20.90;40.00;;;;;;5037429;28;20057;-60
2022/01/12 00:58:58;;;;;;;6.15;4.85;;;20.90;40.80;;;;;;5034652;28;45925;-60
2022/01/12 01:01:23;;;;;;;5.60;5.10;;;20.90;40.10;;;;;;5037105;28;20071;-60
2022/01/12 01:03:50;;;;;;;6.03;5.05;;;20.90;40.10;;;;;;5035598;28;20413;-60
2022/01/12 01:06:17;;;;;;;5.25;4.70;;;20.80;40.00;;;;;;5036832;28;20072;-59
2022/01/12 01:08:44;;;;;;;6.85;4.90;;;20.80;40.00;;;;;;5037388;28;20041;-59
2022/01/12 01:11:10;;;;;;;7.18;4.90;;;20.80;40.00;;;;;;5038840;28;20160;-60
2022/01/12 01:13:44;;;;;;;5.03;4.55;;;20.80;40.10;;;;;;5033458;28;35484;-60
2022/01/12 01:16:20;;;;;;;5.72;4.93;;;20.80;40.10;;;;;;5036331;28;20037;-59
2022/01/12 01:26:58;;;;;;;11.38;6.00;;;20.70;40.10;;;;;;5033771;28;40673;-60
2022/01/12 01:29:24;;;;;;;6.57;5.47;;;20.70;40.10;;;;;;5036006;28;20030;-60
2022/01/12 01:31:50;;;;;;;5.50;4.45;;;20.70;40.10;;;;;;5035079;28;20083;-60
2022/01/12 01:34:16;;;;;;;5.57;4.50;;;20.70;40.10;;;;;;5035335;28;20550;-60
2022/01/12 01:36:51;;;;;;;5.35;4.60;;;20.70;40.20;;;;;;5035919;28;20049;-60
2022/01/12 01:39:25;;;;;;;7.38;4.88;;;20.70;40.20;;;;;;5036430;28;20045;-60
2022/01/12 01:41:59;;;;;;;5.55;4.90;;;20.60;40.10;;;;;;5034184;28;43433;-60
2022/01/12 01:55:10;;;;;;;6.55;5.20;;;20.60;40.20;;;;;;5035124;28;23991;-60
2022/01/12 01:57:36;;;;;;;7.45;5.25;;;20.60;40.20;;;;;;5036342;28;20298;-60
2022/01/12 02:00:06;;;;;;;7.80;5.85;;;20.60;40.20;;;;;;5025800;28;20057;-60
2022/01/12 02:02:32;;;;;;;9.02;5.50;;;20.60;40.20;;;;;;5033526;28;20099;-60
2022/01/12 02:04:57;;;;;;;6.65;5.28;;;20.50;40.20;;;;;;5039570;28;20061;-60
2022/01/12 02:07:24;;;;;;;11.63;5.05;;;20.50;40.20;;;;;;5033612;28;20048;-60
2022/01/12 02:09:49;;;;;;;12.88;5.43;;;20.50;40.30;;;;;;5036661;28;37982;-60
2022/01/12 02:12:24;;;;;;;25.23;6.30;;;20.50;40.40;;;;;;5034682;28;20042;-60
2022/01/12 02:14:50;;;;;;;17.55;6.03;;;20.50;40.50;;;;;;5035270;28;20037;-59
2022/01/12 02:17:21;;;;;;;12.07;5.93;;;20.50;40.60;;;;;;5033599;28;20033;-59
2022/01/12 02:36:30;;;;;;;9.15;5.50;;;20.40;41.00;;;;;;5034312;28;20103;-60
2022/01/12 02:41:41;;;;;;;12.00;6.40;;;20.40;41.10;;;;;;5037366;28;20064;-60
2022/01/12 02:54:44;;;;;;;10.90;6.10;;;20.40;41.20;;;;;;5034526;28;20049;-60
2022/01/12 02:57:09;;;;;;;9.13;6.50;;;20.40;41.20;;;;;;5035013;28;20041;-59
2022/01/12 02:59:36;;;;;;;8.48;6.40;;;20.40;41.20;;;;;;5035315;28;20644;-60
2022/01/12 03:04:28;;;;;;;8.32;6.70;;;20.30;41.20;;;;;;5030922;28;20123;-60
2022/01/12 03:07:03;;;;;;;8.35;6.85;;;20.30;41.20;;;;;;5033926;28;20087;-59
2022/01/12 03:09:29;;;;;;;8.80;6.50;;;20.30;41.20;;;;;;5033689;28;20139;-60
2022/01/12 03:11:54;;;;;;;8.52;6.20;;;20.30;41.30;;;;;;5034631;28;20033;-60
2022/01/12 03:14:20;;;;;;;11.65;7.38;;;20.30;41.30;;;;;;5032274;28;20033;-59
2022/01/12 03:16:45;;;;;;;9.25;6.82;;;20.30;41.30;;;;;;5033595;28;20459;-59
2022/01/12 03:19:11;;;;;;;10.82;7.43;;;20.30;41.30;;;;;;5034319;28;20046;-59
2022/01/12 03:21:36;;;;;;;9.30;7.13;;;20.20;41.20;;;;;;5028852;28;20064;-60
2022/01/12 03:24:03;;;;;;;10.15;7.63;;;20.20;41.20;;;;;;5035149;28;20041;-60
2022/01/12 03:26:31;;;;;;;9.15;7.55;;;20.20;41.30;;;;;;5034187;28;40156;-60
2022/01/12 03:28:57;;;;;;;9.55;7.28;;;20.20;41.30;;;;;;5034636;28;20041;-60
2022/01/12 03:31:28;;;;;;;10.70;7.90;;;20.20;41.30;;;;;;5035266;28;20090;-60
2022/01/12 03:36:40;;;;;;;10.15;8.18;;;20.20;41.30;;;;;;5036491;28;20041;-59
2022/01/12 03:39:07;;;;;;;10.18;7.88;;;20.20;41.40;;;;;;5034804;28;41279;-59
2022/01/12 03:41:35;;;;;;;9.30;7.55;;;20.20;41.40;;;;;;5038390;28;20037;-59
2022/01/12 03:44:02;;;;;;;13.00;7.78;;;20.20;41.40;;;;;;5037323;28;20314;-60
2022/01/12 03:46:34;;;;;;;10.45;7.78;;;20.20;41.40;;;;;;5038813;28;20057;-60
2022/01/12 03:48:59;;;;;;;10.57;7.72;;;20.10;41.30;;;;;;5039037;28;20041;-60
2022/01/12 03:51:26;;;;;;;9.25;7.75;;;20.10;41.30;;;;;;5038951;28;20041;-60
2022/01/12 03:53:52;;;;;;;9.45;7.65;;;20.10;41.40;;;;;;5037392;28;36079;-60
2022/01/12 03:56:18;;;;;;;9.02;7.38;;;20.10;41.40;;;;;;5037493;28;20087;-60
2022/01/12 03:58:43;;;;;;;10.65;7.65;;;20.10;41.30;;;;;;5037024;28;20125;-60
2022/01/12 04:01:09;;;;;;;10.65;7.68;;;20.10;41.40;;;;;;5036229;28;20045;-60
2022/01/12 04:03:40;;;;;;;10.90;8.32;;;20.10;41.40;;;;;;5036504;28;20480;-60
2022/01/12 04:08:50;;;;;;;10.43;8.70;;;20.10;41.40;;;;;;5035048;28;37959;-59
2022/01/12 04:11:15;;;;;;;9.85;7.85;;;20.00;41.30;;;;;;5037285;28;20037;-60
2022/01/12 04:13:43;;;;;;;11.18;8.43;;;20.10;41.40;;;;;;5039121;28;20450;-59
2022/01/12 04:16:11;;;;;;;8.85;7.70;;;20.00;41.40;;;;;;5037922;28;20028;-60
2022/01/12 04:18:37;;;;;;;9.10;8.00;;;20.00;41.30;;;;;;5036550;28;20052;-60
2022/01/12 04:21:06;;;;;;;12.07;8.45;;;20.00;41.40;;;;;;5035186;28;38333;-60
2022/01/12 04:23:32;;;;;;;11.75;8.43;;;20.00;41.30;;;;;;5035717;28;20106;-59
2022/01/12 04:26:00;;;;;;;10.20;8.57;;;20.00;41.30;;;;;;5036292;28;20103;-60
2022/01/12 04:28:27;;;;;;;12.13;8.80;;;20.00;41.40;;;;;;5040508;28;20076;-59
2022/01/12 04:30:55;;;;;;;9.43;8.45;;;20.00;41.40;;;;;;5036670;28;20091;-60
2022/01/12 04:33:21;;;;;;;10.88;8.25;;;20.00;41.40;;;;;;5038644;28;20072;-60
2022/01/12 04:35:52;;;;;;;10.52;8.57;;;20.00;41.40;;;;;;5034059;28;45635;-59
2022/01/12 04:38:19;;;;;;;11.63;8.70;;;20.00;41.30;;;;;;5035765;28;20025;-59
2022/01/12 04:40:45;;;;;;;9.50;8.30;;;20.00;41.40;;;;;;5037481;28;20555;-60
2022/01/12 04:43:11;;;;;;;10.85;8.38;;;20.00;41.40;;;;;;5038948;28;20087;-60
2022/01/12 04:50:46;;;;;;;12.05;8.90;;;19.90;41.40;;;;;;5035455;28;38214;-60
2022/01/12 04:53:14;;;;;;;10.60;8.43;;;19.90;41.40;;;;;;5035718;28;20049;-59
2022/01/12 04:55:39;;;;;;;11.68;8.52;;;19.90;41.40;;;;;;5036456;28;20047;-59
2022/01/12 04:58:06;;;;;;;10.77;8.45;;;19.90;41.40;;;;;;5035272;28;20041;-59
2022/01/12 05:00:33;;;;;;;11.18;8.88;;;19.90;41.40;;;;;;5037736;28;20068;-60
2022/01/12 05:13:41;;;;;;;9.75;8.75;;;19.80;41.40;;;;;;5038813;28;20132;-60
2022/01/12 05:16:10;;;;;;;10.40;8.63;;;19.80;41.40;;;;;;5033800;28;21206;-60
2022/01/12 05:18:36;;;;;;;11.68;8.63;;;19.80;41.40;;;;;;5034033;28;40808;-60
2022/01/12 05:21:04;;;;;;;10.65;8.52;;;19.80;41.30;;;;;;5019596;28;20136;-60
2022/01/12 05:23:30;;;;;;;11.38;9.00;;;19.80;41.30;;;;;;5036564;28;20032;-59
2022/01/12 05:25:55;;;;;;;10.60;9.43;;;19.80;41.30;;;;;;5037442;28;20119;-60
2022/01/12 05:28:23;;;;;;;9.90;8.20;;;19.80;41.30;;;;;;5035397;28;20397;-60
2022/01/12 05:30:50;;;;;;;11.52;8.57;;;19.80;41.30;;;;;;5038046;28;20044;-60
2022/01/12 05:33:16;;;;;;;9.73;8.20;;;19.80;41.30;;;;;;5035441;28;46070;-59
2022/01/12 05:35:42;;;;;;;9.77;8.10;;;19.80;41.30;;;;;;5037956;28;20037;-60
2022/01/12 05:38:12;;;;;;;9.77;7.90;;;19.80;41.30;;;;;;5036138;28;20052;-59
2022/01/12 05:40:38;;;;;;;10.35;8.00;;;19.80;41.30;;;;;;5035856;28;20048;-59
2022/01/12 05:43:04;;;;;;;10.65;8.77;;;19.80;41.30;;;;;;5036854;28;20052;-60
2022/01/12 05:45:37;;;;;;;10.43;7.82;;;19.80;41.30;;;;;;5034778;28;43196;-60
2022/01/12 05:50:34;;;;;;;10.15;8.50;;;19.80;41.30;;;;;;5034070;28;20057;-60
2022/01/12 05:53:00;;;;;;;9.00;7.95;;;19.80;41.40;;;;;;5036504;28;20052;-59
2022/01/12 05:55:25;;;;;;;11.35;8.45;;;19.80;41.30;;;;;;5036090;28;20037;-61
2022/01/12 05:57:51;;;;;;;10.00;8.02;;;19.80;41.30;;;;;;5037898;28;20034;-60
2022/01/12 06:00:19;;;;;;;8.73;7.65;;;19.80;41.40;;;;;;5034877;28;40609;-59
2022/01/12 06:02:44;;;;;;;10.20;8.35;;;19.80;41.40;;;;;;5036584;28;20140;-60
2022/01/12 06:05:10;;;;;;;9.60;7.65;;;19.80;41.40;;;;;;5037599;28;20136;-60
2022/01/12 06:07:36;;;;;;;8.60;7.70;;;19.80;41.50;;;;;;5035026;28;20485;-60
2022/01/12 06:10:02;;;;;;;9.00;7.10;;;19.90;41.50;;;;;;5034530;28;20139;-60
2022/01/12 06:12:28;;;;;;;8.23;7.15;;;19.90;41.50;;;;;;5036562;28;20053;-59
2022/01/12 06:14:53;;;;;;;9.27;7.53;;;19.90;41.40;;;;;;5035396;28;42805;-59
2022/01/12 06:17:19;;;;;;;8.00;6.80;;;19.90;41.40;;;;;;5033866;28;20084;-60
2022/01/12 06:19:44;;;;;;;9.85;7.32;;;19.90;41.50;;;;;;5034990;28;20448;-59
2022/01/12 06:22:10;;;;;;;9.60;6.80;;;19.90;41.40;;;;;;5034546;28;20044;-60
2022/01/12 06:24:37;;;;;;;9.77;7.25;;;19.90;41.40;;;;;;5036436;28;20136;-60
2022/01/12 06:27:04;;;;;;;7.40;6.32;;;19.90;41.40;;;;;;5035914;28;20051;-60
2022/01/12 06:29:43;;;;;;;7.97;6.55;;;20.00;41.50;;;;;;5031307;28;41099;-60
2022/01/12 06:32:09;;;;;;;7.32;6.63;;;20.00;41.50;;;;;;5036033;28;20045;-59
2022/01/12 06:34:35;;;;;;;9.05;6.55;;;20.00;41.50;;;;;;5034857;28;20432;-60
2022/01/12 06:37:01;;;;;;;7.57;6.47;;;20.00;41.40;;;;;;5037020;28;20159;-59
2022/01/12 06:39:27;;;;;;;7.57;6.70;;;20.00;41.40;;;;;;5034158;28;20095;-59
2022/01/12 06:41:54;;;;;;;7.88;6.30;;;20.00;41.40;;;;;;5034796;28;25691;-59
2022/01/12 06:44:21;;;;;;;7.75;6.28;;;20.00;41.50;;;;;;5035336;28;20854;-60
2022/01/12 06:46:51;;;;;;;8.45;6.22;;;20.00;41.50;;;;;;5034539;28;20036;-59
2022/01/12 06:49:17;;;;;;;6.55;5.85;;;20.10;41.60;;;;;;5038735;28;20037;-59
2022/01/12 06:51:44;;;;;;;6.60;5.70;;;20.10;41.70;;;;;;5035984;28;20061;-59
2022/01/12 06:54:10;;;;;;;7.72;6.05;;;20.10;41.70;;;;;;5036781;28;20043;-60
2022/01/12 06:56:36;;;;;;;7.35;6.22;;;20.10;41.70;;;;;;5033721;28;45499;-60
2022/01/12 06:59:03;;;;;;;8.43;6.00;;;20.10;41.70;;;;;;5034023;28;20045;-59
2022/01/12 07:01:29;;;;;;;6.75;6.00;;;20.10;41.70;;;;;;5035073;28;20040;-61
2022/01/12 07:03:55;;;;;;;5.90;5.30;;;20.10;41.70;;;;;;5033356;28;20064;-60
2022/01/12 07:06:21;;;;;;;6.00;5.40;;;20.20;41.70;;;;;;5035778;28;20051;-59
2022/01/12 07:08:47;;;;;;;7.13;5.82;;;20.10;41.60;;;;;;5035346;28;20044;-60
2022/01/12 07:11:12;;;;;;;6.18;5.40;;;20.20;41.70;;;;;;5035077;28;43189;-60
2022/01/12 07:13:38;;;;;;;7.68;5.30;;;20.20;41.70;;;;;;5039478;28;20036;-59
2022/01/12 07:16:04;;;;;;;7.15;5.60;;;20.20;41.70;;;;;;5039414;28;20028;-60
2022/01/12 07:18:29;;;;;;;6.85;6.00;;;20.20;41.70;;;;;;5039760;28;20090;-60
2022/01/12 07:20:59;;;;;;;6.80;6.10;;;20.20;41.60;;;;;;5037905;28;20037;-59
2022/01/12 07:23:25;;;;;;;6.47;5.80;;;20.20;41.60;;;;;;5038601;28;20037;-60
2022/01/12 07:25:52;;;;;;;7.78;5.88;;;20.20;41.60;;;;;;5036208;28;40752;-60
2022/01/12 07:28:18;;;;;;;7.10;6.15;;;20.20;41.60;;;;;;5037871;28;20060;-59
2022/01/12 07:30:44;;;;;;;7.30;5.53;;;20.30;41.70;;;;;;5038871;28;20048;-60
2022/01/12 07:33:09;;;;;;;6.38;5.72;;;20.30;41.60;;;;;;5037774;28;20368;-60
2022/01/12 07:35:35;;;;;;;6.55;5.25;;;20.30;41.60;;;;;;5035771;28;20275;-60
2022/01/12 07:38:01;;;;;;;6.47;5.40;;;20.30;41.60;;;;;;5035416;28;43220;-60
2022/01/12 07:40:26;;;;;;;6.32;5.43;;;20.30;41.60;;;;;;5037893;28;20048;-59
2022/01/12 07:42:52;;;;;;;6.10;5.45;;;20.30;41.50;;;;;;5037541;28;20057;-60
2022/01/12 07:45:18;;;;;;;6.35;5.50;;;20.30;41.50;;;;;;5039558;28;20044;-59
2022/01/12 07:47:44;;;;;;;5.80;5.20;;;20.40;41.50;;;;;;5036337;28;20041;-59
2022/01/12 07:50:10;;;;;;;5.47;4.80;;;20.40;41.60;;;;;;5039193;28;20045;-60
2022/01/12 07:52:36;;;;;;;8.25;4.97;;;20.40;41.70;;;;;;5035132;28;38171;-60
2022/01/12 07:55:03;;;;;;;6.93;5.28;;;20.40;41.70;;;;;;5029362;28;20559;-60
2022/01/12 07:57:29;;;;;;;5.40;4.75;;;20.40;41.70;;;;;;5034778;28;20535;-59
2022/01/12 07:59:55;;;;;;;5.88;5.10;;;20.40;41.80;;;;;;5037602;28;20041;-59
2022/01/12 08:02:21;;;;;;;4.88;4.35;;;20.40;41.90;;;;;;5037689;28;20129;-59
2022/01/12 08:04:46;;;;;;;6.22;4.65;;;20.40;41.80;;;;;;5039039;28;20537;-60
2022/01/12 08:07:12;;;;;;;7.50;4.80;;;20.40;41.80;;;;;;5035975;28;42867;-59
2022/01/12 08:09:39;;;;;;;7.80;5.13;;;20.40;41.90;;;;;;5037479;28;20033;-59
2022/01/12 08:12:05;;;;;;;5.20;4.70;;;20.50;42.00;;;;;;5037765;28;20041;-59
2022/01/12 08:14:31;;;;;;;6.78;4.93;;;20.50;42.00;;;;;;5035313;28;20056;-59
2022/01/12 08:16:56;;;;;;;6.18;4.63;;;20.50;42.00;;;;;;5032978;28;20029;-60
2022/01/12 08:19:23;;;;;;;6.00;4.60;;;20.50;42.00;;;;;;5035853;28;20049;-59
2022/01/12 08:21:49;;;;;;;5.97;4.32;;;20.50;42.10;;;;;;5033507;28;41091;-60
2022/01/12 08:24:16;;;;;;;6.78;5.00;;;20.50;42.20;;;;;;5034072;28;20047;-60
2022/01/12 08:26:42;;;;;;;9.07;4.10;;;20.50;42.10;;;;;;5035292;28;20107;-60
2022/01/12 08:29:10;;;;;;;5.00;4.32;;;20.50;42.20;;;;;;5035245;28;20044;-60
2022/01/12 08:31:36;;;;;;;4.95;4.35;;;20.60;42.30;;;;;;5034063;28;20052;-60
2022/01/12 08:34:02;;;;;;;4.68;4.03;;;20.60;42.40;;;;;;5034169;28;38151;-59
2022/01/12 08:36:27;;;;;;;7.07;4.38;;;20.60;42.40;;;;;;5036268;28;20087;-60
2022/01/12 08:38:53;;;;;;;5.15;4.13;;;20.60;42.40;;;;;;5034880;28;20025;-59
2022/01/12 08:41:19;;;;;;;6.10;4.15;;;20.60;42.50;;;;;;5034539;28;20056;-60
2022/01/12 08:43:44;;;;;;;4.28;3.88;;;20.60;42.60;;;;;;5034279;28;20036;-59
2022/01/12 08:46:10;;;;;;;5.03;3.80;;;20.60;42.80;;;;;;5033471;28;20131;-59
2022/01/12 08:48:36;;;;;;;6.65;3.75;;;20.60;42.90;;;;;;5029011;28;45477;-60
2022/01/12 08:51:02;;;;;;;4.43;3.15;;;20.70;43.10;;;;;;5033921;28;20029;-60
2022/01/12 08:53:28;;;;;;;5.28;3.55;;;20.70;43.20;;;;;;5031927;28;20445;-59
2022/01/12 08:55:54;;;;;;;3.90;3.22;;;20.70;43.20;;;;;;5033023;28;20033;-59
2022/01/12 08:58:19;;;;;;;5.32;3.15;;;20.70;43.30;;;;;;5032816;28;20037;-60
2022/01/12 09:00:45;;;;;;;7.20;3.60;;;20.70;43.40;;;;;;5034988;28;20040;-60
2022/01/12 09:03:12;;;;;;;7.55;3.75;;;20.80;43.40;;;;;;5032338;28;43148;-60
2022/01/12 09:05:37;;;;;;;5.22;3.60;;;20.80;43.50;;;;;;5034637;28;20057;-60
2022/01/12 09:08:04;;;;;;;4.80;3.47;;;20.80;43.60;;;;;;5035600;28;20051;-60
2022/01/12 09:10:29;;;;;;;4.90;3.65;;;20.80;43.60;;;;;;5035449;28;20388;-59
2022/01/12 09:12:55;;;;;;;3.83;2.95;;;20.80;43.60;;;;;;5032907;28;20043;-60
2022/01/12 09:15:25;;;;;;;6.20;3.53;;;20.80;43.60;;;;;;5033908;28;20041;-60
2022/01/12 09:17:51;;;;;;;7.72;3.45;;;20.90;43.60;;;;;;5031438;28;36229;-60
2022/01/12 09:20:17;;;;;;;5.15;3.30;;;20.90;43.60;;;;;;5034753;28;20370;-59
2022/01/12 09:22:43;;;;;;;6.38;3.78;;;20.90;43.60;;;;;;5031784;28;20033;-59
2022/01/12 09:25:09;;;;;;;5.18;3.13;;;20.80;43.50;;;;;;5032786;28;20048;-60
2022/01/12 09:27:35;;;;;;;4.25;3.33;;;20.80;43.60;;;;;;5035637;28;20140;-60
2022/01/12 09:30:01;;;;;;;4.82;3.60;;;20.90;43.70;;;;;;5029643;28;40763;-59
2022/01/12 09:32:26;;;;;;;6.03;3.30;;;20.90;43.90;;;;;;5033359;28;20099;-59
2022/01/12 09:34:52;;;;;;;6.72;3.33;;;20.90;43.80;;;;;;5033445;28;20041;-61
2022/01/12 09:37:20;;;;;;;5.80;3.40;;;20.90;43.90;;;;;;5031290;28;20041;-60
2022/01/12 09:39:46;;;;;;;5.95;3.70;;;20.90;44.30;;;;;;5033828;28;20120;-61
2022/01/12 09:42:11;;;;;;;5.72;3.53;;;20.90;44.50;;;;;;5033175;28;20759;-60
2022/01/12 09:44:44;;;;;;;6.00;3.33;;;21.00;44.70;;;;;;5031166;28;40508;-60
2022/01/12 09:47:09;;;;;;;6.65;2.80;;;21.00;44.80;;;;;;5028505;28;20143;-61
2022/01/12 09:49:35;;;;;;;6.28;3.50;;;21.00;44.80;;;;;;5032938;28;20119;-61
2022/01/12 09:52:01;;;;;;;6.10;2.97;;;21.00;44.80;;;;;;5028443;28;20072;-61
2022/01/12 09:54:27;;;;;;;6.18;3.50;;;21.00;45.00;;;;;;5029042;28;20048;-61
2022/01/12 09:56:53;;;;;;;6.80;3.38;;;21.00;44.90;;;;;;5031286;28;20072;-60
2022/01/12 09:59:21;;;;;;;5.60;3.30;;;21.10;44.90;;;;;;5029921;28;40585;-61
2022/01/12 10:01:48;;;;;;;5.45;3.47;;;21.10;45.00;;;;;;5033341;28;20508;-61
2022/01/12 10:04:22;;;;;;;4.57;3.03;;;21.10;45.00;;;;;;5030733;28;20044;-61
2022/01/12 10:06:52;;;;;;;5.47;2.88;;;21.10;45.00;;;;;;5033262;28;20048;-61
2022/01/12 10:09:23;;;;;;;8.52;3.33;;;21.10;45.00;;;;;;5032491;28;20068;-61
2022/01/12 10:11:57;;;;;;;8.25;3.55;;;21.10;45.00;;;;;;5032365;28;20143;-60
2022/01/12 10:14:24;;;;;;;4.72;3.25;;;21.10;44.90;;;;;;5029683;28;40744;-60
2022/01/12 10:16:52;;;;;;;5.45;3.58;;;21.10;44.90;;;;;;5033193;28;20095;-61
2022/01/12 10:19:29;;;;;;;7.47;3.95;;;21.10;44.80;;;;;;5030290;28;20148;-59
2022/01/12 10:21:56;;;;;;;6.10;3.55;;;21.20;44.70;;;;;;5034552;28;20033;-59
2022/01/12 10:24:22;;;;;;;7.78;3.28;;;21.10;44.70;;;;;;5034143;28;20136;-59
2022/01/12 10:26:48;;;;;;;6.32;3.08;;;21.20;44.70;;;;;;5027698;28;32810;-59
2022/01/12 10:29:17;;;;;;;7.45;3.17;;;21.20;44.70;;;;;;5047142;28;20420;-59
2022/01/12 10:31:46;;;;;;;5.70;3.10;;;21.10;44.70;;;;;;5034947;28;20106;-60
2022/01/12 10:34:12;;;;;;;6.80;3.22;;;21.10;44.70;;;;;;5034051;28;20120;-61
2022/01/12 10:36:42;;;;;;;8.32;3.67;;;21.10;44.70;;;;;;5033857;28;20401;-60
2022/01/12 10:39:12;;;;;;;6.15;3.00;;;21.10;44.70;;;;;;5034018;28;20033;-60
2022/01/12 10:41:59;;;;;;;7.10;3.10;;;21.10;44.80;;;;;;5033115;28;43064;-60
2022/01/12 10:44:35;;;;;;;8.18;3.53;;;21.10;44.80;;;;;;5033677;28;20033;-64
2022/01/12 10:47:08;;;;;;;5.78;2.70;;;21.10;44.80;;;;;;5034997;28;20045;-59
2022/01/12 10:49:36;;;;;;;6.72;3.08;;;21.20;44.90;;;;;;5034379;28;20043;-60
2022/01/12 10:52:02;;;;;;;7.53;3.00;;;21.10;45.00;;;;;;5034912;28;20477;-62
2022/01/12 10:54:28;;;;;;;7.18;4.38;;;21.10;45.00;;;;;;5031900;28;43650;-62
2022/01/12 10:56:53;;;;;;;5.20;3.70;;;21.20;44.80;;;;;;5033227;28;20075;-60
2022/01/12 10:59:21;;;;;;;7.97;3.88;;;21.10;44.70;;;;;;5034157;28;20080;-60
2022/01/12 11:01:47;;;;;;;7.25;4.05;;;21.20;44.70;;;;;;5034118;28;20060;-61
2022/01/12 11:04:13;;;;;;;7.85;3.85;;;21.10;44.70;;;;;;5032299;28;20057;-60
2022/01/12 11:06:40;;;;;;;8.90;3.78;;;21.10;44.80;;;;;;5035544;28;20045;-60
2022/01/12 11:09:06;;;;;;;6.95;3.70;;;21.20;45.00;;;;;;5033790;28;42843;-60
2022/01/12 11:11:32;;;;;;;6.75;3.70;;;21.20;44.90;;;;;;5030715;28;20451;-59
2022/01/12 11:13:59;;;;;;;9.27;3.65;;;21.20;44.90;;;;;;5036008;28;20041;-61
2022/01/12 11:16:27;;;;;;;10.70;4.43;;;21.20;45.00;;;;;;5034859;28;20116;-59
2022/01/12 11:18:54;;;;;;;7.07;3.38;;;21.20;45.00;;;;;;5036443;28;20428;-59
2022/01/12 11:21:29;;;;;;;6.85;3.90;;;21.20;45.00;;;;;;5034562;28;20037;-60
2022/01/12 11:23:57;;;;;;;7.63;3.50;;;21.10;45.00;;;;;;5033610;28;41031;-60
2022/01/12 11:26:25;;;;;;;6.43;3.53;;;21.10;45.10;;;;;;5034125;28;20049;-60
2022/01/12 11:28:53;;;;;;;9.68;3.72;;;21.10;45.20;;;;;;5034006;28;20388;-60
2022/01/12 11:31:27;;;;;;;9.05;3.58;;;21.20;45.30;;;;;;5035750;28;20049;-59
2022/01/12 11:33:53;;;;;;;8.30;3.97;;;21.10;45.30;;;;;;5049882;28;20374;-60
2022/01/12 11:36:28;;;;;;;8.43;4.18;;;21.20;45.40;;;;;;5033107;28;20123;-59
2022/01/12 11:39:14;;;;;;;8.10;3.83;;;21.20;45.80;;;;;;5029761;28;38935;-59
2022/01/12 11:41:43;;;;;;;7.55;3.72;;;21.20;45.60;;;;;;5034933;28;20102;-59
2022/01/12 11:44:12;;;;;;;10.10;3.85;;;21.20;45.70;;;;;;5033270;28;20068;-60
2022/01/12 11:46:57;;;;;;;9.95;4.22;;;21.10;45.80;;;;;;5034991;28;20056;-60
2022/01/12 11:49:25;;;;;;;7.40;3.58;;;21.20;46.00;;;;;;5029900;28;20037;-61
2022/01/12 11:51:51;;;;;;;9.05;3.97;;;21.10;46.30;;;;;;5028984;28;43170;-61
2022/01/12 11:54:22;;;;;;;9.50;3.63;;;21.20;46.20;;;;;;5033888;28;20036;-61
2022/01/12 11:57:00;;;;;;;10.63;3.83;;;21.20;46.20;;;;;;5034566;28;20041;-61
2022/01/12 11:59:32;;;;;;;8.25;4.18;;;21.20;46.30;;;;;;5038326;28;20044;-62
2022/01/12 12:02:11;;;;;;;10.30;4.03;;;21.10;46.40;;;;;;5037088;28;20047;-61
2022/01/12 12:04:37;;;;;;;12.23;4.22;;;21.20;46.40;;;;;;5035124;28;20049;-61
2022/01/12 12:07:06;;;;;;;8.55;4.15;;;21.10;46.30;;;;;;5035672;28;36821;-61
2022/01/12 12:09:36;;;;;;;7.72;3.85;;;21.10;46.30;;;;;;5038124;28;20052;-62
2022/01/12 12:12:08;;;;;;;;;;;21.10;46.20;;;;;;5022685;28;20052;-61
2022/01/12 12:14:34;;;;;;;9.20;3.85;;;21.10;46.20;;;;;;5034266;28;19947;-61
2022/01/12 12:17:00;;;;;;;8.25;3.58;;;21.10;46.20;;;;;;5037706;28;20037;-61
2022/01/12 12:19:25;;;;;;;9.23;3.83;;;21.10;46.10;;;;;;5034246;28;40974;-61
2022/01/12 12:21:51;;;;;;;7.75;4.00;;;21.10;46.10;;;;;;5037150;28;20419;-61
2022/01/12 12:24:16;;;;;;;9.02;4.03;;;21.10;46.00;;;;;;5037135;28;20490;-61
2022/01/12 12:26:48;;;;;;;8.35;3.90;;;21.10;45.90;;;;;;5035377;28;20108;-61
2022/01/12 12:29:15;;;;;;;9.27;3.20;;;21.10;45.80;;;;;;5036382;28;20459;-61
2022/01/12 12:31:45;;;;;;;7.95;3.50;;;21.10;45.80;;;;;;5037455;28;20136;-61
2022/01/12 12:34:11;;;;;;;7.17;3.53;;;21.10;45.70;;;;;;5033369;28;43531;-61
2022/01/12 12:36:37;;;;;;;8.90;3.58;;;21.10;45.60;;;;;;5036140;28;20886;-62
2022/01/12 12:39:08;;;;;;;7.78;3.38;;;21.10;45.50;;;;;;5035044;28;20051;-61
2022/01/12 12:41:42;;;;;;;7.53;3.10;;;21.10;45.50;;;;;;5034563;28;20090;-61
2022/01/12 12:44:22;;;;;;;5.85;3.22;;;21.00;45.50;;;;;;5037876;28;20462;-61
2022/01/12 12:46:50;;;;;;;5.97;2.90;;;21.00;45.40;;;;;;5036640;28;20453;-61
2022/01/12 12:49:16;;;;;;;5.22;2.92;;;21.00;45.30;;;;;;5035831;28;35975;-61
2022/01/12 12:51:41;;;;;;;7.32;3.17;;;21.00;45.30;;;;;;5036375;28;20511;-61
2022/01/12 12:54:07;;;;;;;4.38;2.40;;;21.00;45.20;;;;;;5037304;28;20053;-61
2022/01/12 12:56:40;;;;;;;5.05;2.63;;;21.00;45.10;;;;;;5033187;28;20097;-61
2022/01/12 12:59:07;;;;;;;5.20;3.03;;;21.00;45.10;;;;;;5034942;28;20381;-61
2022/01/12 13:01:33;;;;;;;5.05;2.38;;;21.00;45.00;;;;;;5031709;28;38721;-61
2022/01/12 13:04:00;;;;;;;7.40;3.17;;;21.00;45.00;;;;;;5035204;28;20532;-62
2022/01/12 13:06:30;;;;;;;6.85;2.90;;;21.00;45.00;;;;;;5034907;28;20048;-61
2022/01/12 13:09:05;;;;;;;6.60;2.75;;;21.00;44.90;;;;;;5032815;28;20401;-61
2022/01/12 13:11:33;;;;;;;4.80;2.38;;;21.00;44.90;;;;;;5029990;28;20049;-61
2022/01/12 13:14:02;;;;;;;4.82;2.55;;;20.90;44.80;;;;;;5033023;28;20041;-61
2022/01/12 13:16:28;;;;;;;5.63;2.58;;;20.90;44.80;;;;;;5032202;28;40926;-61
2022/01/12 13:19:07;;;;;;;4.95;2.50;;;20.90;44.70;;;;;;5035315;28;20037;-61
2022/01/12 13:21:35;;;;;;;4.28;2.40;;;20.90;44.70;;;;;;5033183;28;20389;-61
2022/01/12 13:24:00;;;;;;;4.72;2.30;;;20.90;44.60;;;;;;5035087;28;20072;-61
2022/01/12 13:26:32;;;;;;;3.97;2.20;;;20.90;44.60;;;;;;5031612;28;20532;-61
2022/01/12 13:29:00;;;;;;;4.00;2.45;;;20.90;44.60;;;;;;5032103;28;20038;-61
2022/01/12 13:31:28;;;;;;;4.07;2.13;;;20.90;44.50;;;;;;5028704;28;43105;-61
2022/01/12 13:33:58;;;;;;;4.70;2.10;;;20.90;44.50;;;;;;5034344;28;20043;-61
2022/01/12 13:36:26;;;;;;;3.13;1.80;;;20.90;44.50;;;;;;5040044;28;20037;-61
2022/01/12 13:39:06;;;;;;;3.50;1.95;;;20.90;44.50;;;;;;5034031;28;20048;-61
2022/01/12 13:41:40;;;;;;;4.75;2.80;;;20.90;44.50;;;;;;5034917;28;20902;-61
2022/01/12 13:44:11;;;;;;;5.47;2.60;;;20.90;44.50;;;;;;5032964;28;45885;-61
2022/01/12 13:46:44;;;;;;;4.70;2.30;;;20.80;44.40;;;;;;5034938;28;20463;-62
2022/01/12 13:51:58;;;;;;;4.80;2.10;;;20.90;44.90;;;;;;5034390;28;20373;-61
2022/01/12 13:54:32;;;;;;;2.95;1.88;;;20.90;45.00;;;;;;5035768;28;20037;-61
2022/01/12 13:57:00;;;;;;;5.68;1.95;;;20.80;45.00;;;;;;5032049;28;20036;-61
2022/01/12 13:59:29;;;;;;;5.05;2.38;;;20.80;45.30;;;;;;5029386;28;23751;-61
2022/01/12 14:01:56;;;;;;;6.10;2.50;;;20.80;45.40;;;;;;5033208;28;20440;-60
2022/01/12 14:04:28;;;;;;;8.20;2.45;;;20.80;45.50;;;;;;5031819;28;20057;-61
2022/01/12 14:07:00;;;;;;;4.45;2.35;;;20.80;45.50;;;;;;5033633;28;20049;-60
2022/01/12 14:09:37;;;;;;;8.70;2.55;;;20.80;45.40;;;;;;5035334;28;20102;-61
2022/01/12 14:12:17;;;;;;;5.05;2.15;;;20.80;45.30;;;;;;5031855;28;40480;-61
2022/01/12 14:14:47;;;;;;;5.38;2.40;;;20.80;45.20;;;;;;5033216;28;20045;-61